createdAt,value
2022-10-18T00:00:06.456Z,100418.72
2022-10-18T00:02:33.476Z,100418.91
2022-10-18T00:05:00.303Z,100396.63
2022-10-18T00:07:26.987Z,100411.94
2022-10-18T00:09:53.732Z,100365.31
2022-10-18T00:12:20.489Z,100401.00
2022-10-18T00:14:50.895Z,100406.16
2022-10-18T00:17:17.967Z,100375.50
2022-10-18T00:19:45.173Z,100374.03
2022-10-18T00:22:11.857Z,100388.88
2022-10-18T00:24:38.561Z,100372.84
2022-10-18T00:27:05.344Z,100371.81
2022-10-18T00:29:32.068Z,100384.47
2022-10-18T00:31:58.889Z,100392.09
2022-10-18T00:34:25.655Z,100402.56
2022-10-18T00:36:52.376Z,100380.25
2022-10-18T00:39:20.831Z,100373.81
2022-10-18T00:41:49.068Z,100389.19
2022-10-18T00:44:15.745Z,100400.25
2022-10-18T00:46:45.197Z,100382.38
2022-10-18T00:49:16.346Z,100394.50
2022-10-18T00:51:46.927Z,100375.41
2022-10-18T00:54:16.554Z,100390.50
2022-10-18T00:56:45.042Z,100373.09
2022-10-18T00:59:14.837Z,100378.53
2022-10-18T01:01:41.779Z,100389.03
2022-10-18T01:04:08.672Z,100394.53
2022-10-18T01:06:52.067Z,100379.78
2022-10-18T01:09:24.352Z,100374.44
2022-10-18T01:11:54.218Z,100383.91
2022-10-18T01:14:34.310Z,100375.78
2022-10-18T01:17:07.732Z,100349.19
2022-10-18T01:20:01.893Z,100368.91
2022-10-18T01:22:44.268Z,100372.97
2022-10-18T01:26:09.542Z,100369.09
2022-10-18T01:28:52.623Z,100371.94
2022-10-18T01:31:23.534Z,100346.19
2022-10-18T01:33:58.742Z,100345.50
2022-10-18T01:36:40.581Z,100362.06
2022-10-18T01:39:11.580Z,100358.16
2022-10-18T01:41:41.448Z,100366.22
2022-10-18T01:44:12.953Z,100368.00
2022-10-18T01:46:41.884Z,100358.94
2022-10-18T01:49:08.920Z,100371.06
2022-10-18T01:51:36.033Z,100369.88
2022-10-18T01:54:03.226Z,100350.72
2022-10-18T01:56:42.149Z,100366.03
2022-10-18T01:59:15.100Z,100363.00
2022-10-18T02:01:54.112Z,100361.63
2022-10-18T02:04:30.377Z,100342.72
2022-10-18T02:07:12.932Z,100351.22
2022-10-18T02:09:46.886Z,100362.69
2022-10-18T02:12:15.768Z,100296.19
2022-10-18T02:14:45.684Z,100355.63
2022-10-18T02:17:13.220Z,100362.91
2022-10-18T02:19:44.611Z,100347.19
2022-10-18T02:22:12.904Z,100353.59
2022-10-18T02:24:45.232Z,100353.25
2022-10-18T02:27:12.965Z,100341.78
2022-10-18T02:29:41.871Z,100331.13
2022-10-18T02:32:19.754Z,100337.53
2022-10-18T02:34:54.173Z,100327.50
2022-10-18T02:37:21.182Z,100324.06
2022-10-18T02:39:50.961Z,100315.78
2022-10-18T02:42:17.710Z,100299.47
2022-10-18T02:44:45.828Z,100305.41
2022-10-18T02:47:12.941Z,100313.91
2022-10-18T02:49:40.005Z,100315.91
2022-10-18T02:52:07.395Z,100281.13
2022-10-18T02:54:34.143Z,100290.72
2022-10-18T02:57:00.922Z,100315.66
2022-10-18T02:59:27.766Z,100310.09
2022-10-18T03:01:54.619Z,100288.81
2022-10-18T03:04:21.382Z,100304.91
2022-10-18T03:06:48.227Z,100252.66
2022-10-18T03:09:14.944Z,100298.28
2022-10-18T03:11:41.768Z,100290.72
2022-10-18T03:14:08.536Z,100295.22
2022-10-18T03:16:35.244Z,100288.72
2022-10-18T03:19:02.049Z,100270.66
2022-10-18T03:21:28.820Z,100284.00
2022-10-18T03:23:56.200Z,100291.34
2022-10-18T03:26:22.904Z,100277.50
2022-10-18T03:28:49.724Z,100288.84
2022-10-18T03:31:16.644Z,100280.91
2022-10-18T03:33:43.420Z,100278.44
2022-10-18T03:36:10.396Z,100285.75
2022-10-18T03:38:37.125Z,100267.44
2022-10-18T03:41:04.055Z,100276.44
2022-10-18T03:43:30.907Z,100258.78
2022-10-18T03:45:57.664Z,100252.16
2022-10-18T03:48:24.796Z,100274.50
2022-10-18T03:50:52.093Z,100250.00
2022-10-18T03:53:18.809Z,100268.19
2022-10-18T03:55:50.125Z,100274.34
2022-10-18T03:58:16.951Z,100259.81
2022-10-18T04:00:43.737Z,100252.81
2022-10-18T04:03:10.577Z,100265.34
2022-10-18T04:05:37.484Z,100270.69
2022-10-18T04:08:04.812Z,100279.06
2022-10-18T04:10:31.516Z,100263.78
2022-10-18T04:12:58.371Z,100279.63
2022-10-18T04:15:25.080Z,100269.00
2022-10-18T04:17:51.794Z,100269.50
2022-10-18T04:20:18.581Z,100263.34
2022-10-18T04:22:46.310Z,100275.34
2022-10-18T04:25:12.993Z,100261.81
2022-10-18T04:27:39.784Z,100256.13
2022-10-18T04:30:07.047Z,100257.25
2022-10-18T04:32:35.469Z,100282.91
2022-10-18T04:35:03.301Z,100279.63
2022-10-18T04:37:30.338Z,100276.03
2022-10-18T04:39:57.405Z,100282.31
2022-10-18T04:42:24.311Z,100298.88
2022-10-18T04:44:51.330Z,100268.31
2022-10-18T04:47:18.255Z,100290.88
2022-10-18T04:49:45.088Z,100296.31
2022-10-18T04:52:11.982Z,100293.03
2022-10-18T04:54:38.817Z,100294.00
2022-10-18T04:57:05.838Z,100287.38
2022-10-18T04:59:32.658Z,100284.56
2022-10-18T05:01:59.495Z,100292.50
2022-10-18T05:04:26.339Z,100286.34
2022-10-18T05:06:53.055Z,100279.25
2022-10-18T05:09:22.341Z,100271.72
2022-10-18T05:11:49.217Z,100270.16
2022-10-18T05:14:16.140Z,100292.84
2022-10-18T05:16:42.950Z,100284.34
2022-10-18T05:19:10.266Z,100285.75
2022-10-18T05:21:36.996Z,100281.28
2022-10-18T05:24:04.023Z,100276.31
2022-10-18T05:26:30.822Z,100279.97
2022-10-18T05:28:57.673Z,100269.31
2022-10-18T05:31:24.448Z,100278.44
2022-10-18T05:33:51.239Z,100292.66
2022-10-18T05:36:17.916Z,100294.63
2022-10-18T05:38:47.976Z,100277.03
2022-10-18T05:41:15.059Z,100296.22
2022-10-18T05:43:41.747Z,100298.31
2022-10-18T05:46:14.559Z,100303.56
2022-10-18T05:48:44.253Z,100236.50
2022-10-18T05:51:11.426Z,100307.78
2022-10-18T05:53:38.426Z,100265.69
2022-10-18T05:56:06.722Z,100291.19
2022-10-18T05:58:33.999Z,100298.69
2022-10-18T06:01:05.682Z,100301.16
2022-10-18T06:03:33.345Z,100289.06
2022-10-18T06:06:06.708Z,100280.19
2022-10-18T06:08:34.328Z,100319.84
2022-10-18T06:11:07.459Z,100307.06
2022-10-18T06:13:34.471Z,100291.66
2022-10-18T06:16:01.166Z,100281.97
2022-10-18T06:18:28.175Z,100311.19
2022-10-18T06:20:59.311Z,100309.19
2022-10-18T06:23:29.287Z,100192.28
2022-10-18T06:26:03.678Z,100319.31
2022-10-18T06:28:30.979Z,100313.91
2022-10-18T06:30:58.525Z,100314.22
2022-10-18T06:33:26.827Z,100309.16
2022-10-18T06:35:59.252Z,100300.28
2022-10-18T06:38:26.798Z,100315.06
2022-10-18T06:40:54.851Z,100283.16
2022-10-18T06:43:21.907Z,100310.28
2022-10-18T06:45:49.645Z,100304.63
2022-10-18T06:50:58.356Z,100310.03
2022-10-18T06:53:30.721Z,100309.59
2022-10-18T06:56:01.859Z,100301.66
2022-10-18T06:58:29.853Z,100315.72
2022-10-18T07:00:57.383Z,100319.94
2022-10-18T07:03:24.172Z,100323.00
2022-10-18T07:05:51.225Z,100321.06
2022-10-18T07:08:18.740Z,100325.19
2022-10-18T07:10:53.269Z,100332.38
2022-10-18T07:13:32.096Z,100333.63
2022-10-18T07:16:17.398Z,100320.09
2022-10-18T07:18:50.510Z,100341.66
2022-10-18T07:21:20.287Z,100324.44
2022-10-18T07:23:47.498Z,100341.25
2022-10-18T07:26:21.707Z,100375.38
2022-10-18T07:28:55.432Z,100344.34
2022-10-18T07:31:23.776Z,100347.59
2022-10-18T07:33:50.822Z,100361.94
2022-10-18T07:36:18.371Z,100363.22
2022-10-18T07:38:45.331Z,100339.81
2022-10-18T07:41:13.256Z,100367.28
2022-10-18T07:43:51.703Z,100372.22
2022-10-18T07:46:20.220Z,100361.28
2022-10-18T07:48:46.984Z,100369.22
2022-10-18T07:51:14.591Z,100371.31
2022-10-18T07:53:41.314Z,100397.75
2022-10-18T07:56:16.183Z,100368.34
2022-10-18T07:58:47.808Z,100402.38
2022-10-18T08:01:15.737Z,100410.66
2022-10-18T08:03:43.766Z,100410.47
2022-10-18T08:06:12.139Z,100404.53
2022-10-18T08:08:40.034Z,100405.47
2022-10-18T08:11:10.680Z,100383.84
2022-10-18T08:13:37.521Z,100427.72
2022-10-18T08:16:10.304Z,100426.41
2022-10-18T08:18:37.658Z,100428.78
2022-10-18T08:21:06.721Z,100400.84
2022-10-18T08:23:34.364Z,100392.06
2022-10-18T08:26:02.623Z,100444.50
2022-10-18T08:28:29.791Z,100437.00
2022-10-18T08:30:56.788Z,100445.19
2022-10-18T08:33:23.982Z,100440.84
2022-10-18T08:35:58.625Z,100427.31
2022-10-18T08:38:25.676Z,100459.41
2022-10-18T08:40:52.701Z,100492.31
2022-10-18T08:43:28.792Z,100462.75
2022-10-18T08:45:56.201Z,100464.84
2022-10-18T08:48:31.307Z,100468.88
2022-10-18T08:50:58.769Z,100482.44
2022-10-18T08:53:39.229Z,100461.09
2022-10-18T08:56:14.912Z,100487.97
2022-10-18T08:58:46.656Z,100473.38
2022-10-18T09:01:31.772Z,100503.47
2022-10-18T09:04:20.332Z,100498.13
2022-10-18T09:07:27.207Z,100498.34
2022-10-18T09:10:05.440Z,100505.94
2022-10-18T09:13:04.155Z,100501.69
2022-10-18T09:15:45.064Z,100498.84
2022-10-18T09:18:37.460Z,100511.00
2022-10-18T09:21:42.060Z,100515.31
2022-10-18T09:24:34.758Z,100482.31
2022-10-18T09:27:15.225Z,100479.56
2022-10-18T09:29:59.351Z,100492.88
2022-10-18T09:32:55.590Z,100492.75
2022-10-18T09:35:27.517Z,100487.06
2022-10-18T09:38:03.218Z,100505.84
2022-10-18T09:40:36.601Z,100489.06
2022-10-18T09:43:12.107Z,100469.84
2022-10-18T09:45:44.944Z,100471.97
2022-10-18T09:48:28.124Z,100487.28
2022-10-18T09:51:21.866Z,100494.50
2022-10-18T09:53:57.452Z,100477.28
2022-10-18T09:56:36.678Z,100497.16
2022-10-18T09:59:15.925Z,100484.09
2022-10-18T10:01:43.158Z,100488.69
2022-10-18T10:04:09.855Z,100492.97
2022-10-18T10:06:39.128Z,100511.53
2022-10-18T10:09:17.040Z,100461.88
2022-10-18T10:11:51.437Z,100468.63
2022-10-18T10:14:26.099Z,100499.06
2022-10-18T10:17:21.628Z,100485.88
2022-10-18T10:20:04.064Z,100477.44
2022-10-18T10:22:41.322Z,100497.47
2022-10-18T10:25:21.417Z,100460.75
2022-10-18T10:27:48.420Z,100446.38
2022-10-18T10:30:30.410Z,100497.47
2022-10-18T10:32:58.227Z,100511.44
2022-10-18T10:35:53.944Z,100524.00
2022-10-18T10:38:31.188Z,100497.91
2022-10-18T10:40:59.192Z,100496.38
2022-10-18T10:43:40.004Z,100532.56
2022-10-18T10:46:09.073Z,100533.22
2022-10-18T10:49:21.701Z,100522.38
2022-10-18T10:51:45.225Z,100518.75
2022-10-18T10:54:20.916Z,100527.59
2022-10-18T10:56:58.882Z,100503.91
2022-10-18T10:59:30.734Z,100433.66
2022-10-18T11:02:17.890Z,100487.41
2022-10-18T11:04:49.688Z,100479.66
2022-10-18T11:07:38.248Z,100488.75
2022-10-18T11:10:12.817Z,100496.91
2022-10-18T11:12:43.812Z,100503.28
2022-10-18T11:15:11.943Z,100510.66
2022-10-18T11:18:04.919Z,100478.41
2022-10-18T11:20:47.440Z,100514.44
2022-10-18T11:23:16.205Z,100506.63
2022-10-18T11:26:01.186Z,100514.00
2022-10-18T11:28:37.142Z,100516.78
2022-10-18T11:31:19.229Z,100516.13
2022-10-18T11:34:16.590Z,100512.63
2022-10-18T11:36:57.973Z,100479.53
2022-10-18T11:40:16.208Z,100498.56
2022-10-18T11:42:58.217Z,100502.06
2022-10-18T11:45:28.113Z,100476.69
2022-10-18T11:48:41.920Z,100448.75
2022-10-18T11:51:34.390Z,100478.50
2022-10-18T11:54:17.338Z,100460.09
2022-10-18T11:56:50.272Z,100486.13
2022-10-18T11:59:26.106Z,100452.84
2022-10-18T12:02:20.679Z,100432.38
2022-10-18T12:04:58.422Z,100445.16
2022-10-18T12:07:50.004Z,100448.22
2022-10-18T12:10:31.487Z,100461.09
2022-10-18T12:13:14.638Z,100435.25
2022-10-18T12:15:41.739Z,100434.19
2022-10-18T12:18:15.422Z,100457.41
2022-10-18T12:20:46.434Z,100463.81
2022-10-18T12:23:30.648Z,100466.50
2022-10-18T12:26:04.022Z,100445.22
2022-10-18T12:28:33.537Z,100447.00
2022-10-18T12:31:14.212Z,100425.44
2022-10-18T12:33:45.932Z,100434.09
2022-10-18T12:36:21.725Z,100425.00
2022-10-18T12:38:54.209Z,100419.16
2022-10-18T12:41:26.609Z,100417.00
2022-10-18T12:44:04.633Z,100419.53
2022-10-18T12:46:51.194Z,100440.31
2022-10-18T12:49:27.783Z,100451.66
2022-10-18T12:52:00.271Z,100429.59
2022-10-18T12:54:31.670Z,100437.25
2022-10-18T12:57:00.095Z,100439.50
2022-10-18T12:59:26.948Z,100437.13
2022-10-18T13:01:53.762Z,100436.06
2022-10-18T13:04:29.662Z,100419.41
2022-10-18T13:07:05.191Z,100374.28
2022-10-18T13:10:02.938Z,100409.34
2022-10-18T13:12:32.007Z,100407.03
2022-10-18T13:15:34.147Z,100395.44
2022-10-18T13:18:18.308Z,100387.34
2022-10-18T13:20:57.690Z,100410.75
2022-10-18T13:23:59.550Z,100410.38
2022-10-18T13:26:38.564Z,100408.13
2022-10-18T13:29:42.299Z,100405.81
2022-10-18T13:32:29.222Z,100398.56
2022-10-18T13:34:56.618Z,100384.34
2022-10-18T13:37:25.784Z,100376.78
2022-10-18T13:40:25.834Z,100345.44
2022-10-18T13:42:52.592Z,100394.69
2022-10-18T13:45:31.820Z,100386.75
2022-10-18T13:48:29.606Z,100397.38
2022-10-18T13:51:12.198Z,100384.97
2022-10-18T13:54:02.279Z,100393.47
2022-10-18T13:56:52.321Z,100415.78
2022-10-18T13:59:41.018Z,100415.22
2022-10-18T14:02:36.476Z,100417.41
2022-10-18T14:05:24.955Z,100452.72
2022-10-18T14:07:58.869Z,100417.03
2022-10-18T14:10:57.491Z,100371.94
2022-10-18T14:13:34.009Z,100395.75
2022-10-18T14:16:10.905Z,100407.75
2022-10-18T14:18:42.829Z,100414.00
2022-10-18T14:21:27.399Z,100420.75
2022-10-18T14:23:57.746Z,100369.06
2022-10-18T14:26:24.521Z,100316.63
2022-10-18T14:29:16.876Z,100367.78
2022-10-18T14:31:53.511Z,100369.09
2022-10-18T14:34:22.169Z,100377.44
2022-10-18T14:36:49.770Z,100399.38
2022-10-18T14:39:29.301Z,100430.78
2022-10-18T14:41:58.374Z,100438.09
2022-10-18T14:44:30.388Z,100443.28
2022-10-18T14:47:16.699Z,100442.13
2022-10-18T14:49:47.872Z,100457.94
2022-10-18T14:52:18.512Z,100448.47
2022-10-18T14:54:45.734Z,100468.53
2022-10-18T14:57:19.917Z,100474.53
2022-10-18T14:59:52.006Z,100464.91
2022-10-18T15:02:39.298Z,100455.34
2022-10-18T15:05:09.213Z,100442.13
2022-10-18T15:07:36.231Z,100469.00
2022-10-18T15:10:05.573Z,100439.88
2022-10-18T15:12:36.827Z,100442.69
2022-10-18T15:15:31.461Z,100399.66
2022-10-18T15:17:59.854Z,100449.41
2022-10-18T15:20:31.711Z,100446.03
2022-10-18T15:23:23.479Z,100453.53
2022-10-18T15:25:52.272Z,100409.72
2022-10-18T15:28:28.716Z,100462.78
2022-10-18T15:30:58.368Z,100452.09
2022-10-18T15:33:27.490Z,100444.84
2022-10-18T15:35:55.026Z,100449.56
2022-10-18T15:38:24.821Z,100462.44
2022-10-18T15:40:51.789Z,100460.66
2022-10-18T15:43:24.823Z,100453.44
2022-10-18T15:45:58.818Z,100454.31
2022-10-18T15:48:35.929Z,100431.41
2022-10-18T15:51:05.584Z,100465.94
2022-10-18T15:53:45.532Z,100435.75
2022-10-18T15:56:34.663Z,100441.28
2022-10-18T15:59:04.775Z,100418.69
2022-10-18T16:01:34.614Z,100451.25
2022-10-18T16:04:02.113Z,100468.94
2022-10-18T16:06:29.268Z,100458.72
2022-10-18T16:08:56.057Z,100449.28
2022-10-18T16:11:26.083Z,100459.53
2022-10-18T16:13:56.449Z,100441.16
2022-10-18T16:16:28.921Z,100459.09
2022-10-18T16:18:57.016Z,100466.94
2022-10-18T16:21:27.686Z,100482.78
2022-10-18T16:23:54.889Z,100456.38
2022-10-18T16:26:22.424Z,100464.34
2022-10-18T16:28:50.079Z,100426.25
2022-10-18T16:31:19.472Z,100432.38
2022-10-18T16:33:47.140Z,100418.59
2022-10-18T16:36:19.295Z,100426.88
2022-10-18T16:38:46.516Z,100430.16
2022-10-18T16:41:16.346Z,100405.72
2022-10-18T16:43:48.124Z,100403.56
2022-10-18T16:46:18.022Z,100415.47
2022-10-18T16:48:45.202Z,100411.97
2022-10-18T16:51:12.358Z,100436.38
2022-10-18T16:53:39.577Z,100419.66
2022-10-18T16:56:13.703Z,100414.97
2022-10-18T16:58:40.543Z,100441.25
2022-10-18T17:01:09.045Z,100415.06
2022-10-18T17:03:36.222Z,100386.31
2022-10-18T17:06:03.238Z,100429.78
2022-10-18T17:08:30.083Z,100441.66
2022-10-18T17:11:00.088Z,100433.41
2022-10-18T17:13:27.135Z,100459.06
2022-10-18T17:15:54.086Z,100427.41
2022-10-18T17:18:26.527Z,100414.91
2022-10-18T17:20:54.064Z,100419.16
2022-10-18T17:23:20.792Z,100386.19
2022-10-18T17:25:59.127Z,100415.88
2022-10-18T17:28:35.447Z,100428.44
2022-10-18T17:31:02.212Z,100388.66
2022-10-18T17:33:28.893Z,100399.34
2022-10-18T17:35:55.649Z,100384.56
2022-10-18T17:38:22.335Z,100407.69
2022-10-18T17:40:49.073Z,100413.59
2022-10-18T17:43:15.867Z,100408.19
2022-10-18T17:45:53.636Z,100416.78
2022-10-18T17:48:20.804Z,100420.72
2022-10-18T17:50:47.501Z,100409.38
2022-10-18T17:53:14.415Z,100403.72
2022-10-18T17:55:41.324Z,100385.25
2022-10-18T17:58:08.083Z,100406.03
2022-10-18T18:00:34.826Z,100428.44
2022-10-18T18:03:02.085Z,100403.34
2022-10-18T18:05:33.969Z,100424.41
2022-10-18T18:08:03.867Z,100430.94
2022-10-18T18:10:33.642Z,100431.22
2022-10-18T18:13:01.066Z,100424.34
2022-10-18T18:15:28.495Z,100423.03
2022-10-18T18:17:57.397Z,100388.47
2022-10-18T18:20:25.253Z,100426.03
2022-10-18T18:22:52.281Z,100422.91
2022-10-18T18:25:19.028Z,100423.06
2022-10-18T18:27:45.763Z,100440.00
2022-10-18T18:30:12.618Z,100440.59
2022-10-18T18:32:39.474Z,100438.53
2022-10-18T18:35:06.430Z,100440.19
2022-10-18T18:37:33.148Z,100416.97
2022-10-18T18:39:59.936Z,100424.09
2022-10-18T18:42:26.650Z,100417.78
2022-10-18T18:44:53.369Z,100413.38
2022-10-18T18:47:22.052Z,100427.97
2022-10-18T18:49:49.365Z,100441.50
2022-10-18T18:52:16.100Z,100433.13
2022-10-18T18:54:42.937Z,100440.88
2022-10-18T18:57:09.682Z,100420.69
2022-10-18T18:59:36.376Z,100436.88
2022-10-18T19:02:03.174Z,100428.84
2022-10-18T19:04:30.009Z,100439.22
2022-10-18T19:06:56.712Z,100432.72
2022-10-18T19:09:24.116Z,100436.66
2022-10-18T19:11:53.414Z,100415.78
2022-10-18T19:16:54.573Z,100430.03
2022-10-18T19:19:24.300Z,100422.22
2022-10-18T19:21:54.290Z,100411.28
2022-10-18T19:24:22.021Z,100362.47
2022-10-18T19:26:51.682Z,100406.66
2022-10-18T19:29:23.417Z,100367.38
2022-10-18T19:31:52.065Z,100421.28
2022-10-18T19:34:21.448Z,100419.09
2022-10-18T19:36:49.164Z,100390.63
2022-10-18T19:39:21.909Z,100392.19
2022-10-18T19:41:51.156Z,100383.91
2022-10-18T19:44:19.530Z,100387.66
2022-10-18T19:46:47.391Z,100409.41
2022-10-18T19:49:14.512Z,100394.97
2022-10-18T19:51:41.744Z,100380.59
2022-10-18T19:54:09.692Z,100367.63
2022-10-18T19:56:36.564Z,100352.69
2022-10-18T19:59:04.882Z,100390.00
2022-10-18T20:01:31.807Z,100365.41
2022-10-18T20:03:59.187Z,100369.16
2022-10-18T20:06:26.370Z,100388.28
2022-10-18T20:08:54.184Z,100377.16
2022-10-18T20:11:24.341Z,100349.66
2022-10-18T20:13:51.980Z,100310.75
2022-10-18T20:16:25.451Z,100352.41
2022-10-18T20:19:01.905Z,100367.81
2022-10-18T20:21:32.740Z,100370.94
2022-10-18T20:23:59.560Z,100370.44
2022-10-18T20:26:26.471Z,100386.34
2022-10-18T20:28:59.518Z,100381.22
2022-10-18T20:31:29.783Z,100346.00
2022-10-18T20:34:01.176Z,100354.34
2022-10-18T20:36:30.533Z,100354.50
2022-10-18T20:38:58.712Z,100345.44
2022-10-18T20:41:26.903Z,100353.97
2022-10-18T20:43:55.563Z,100306.22
2022-10-18T20:46:23.348Z,100325.66
2022-10-18T20:48:54.116Z,100345.88
2022-10-18T20:51:22.247Z,100346.13
2022-10-18T20:53:49.756Z,100333.56
2022-10-18T20:56:22.664Z,100324.81
2022-10-18T20:58:51.493Z,100345.44
2022-10-18T21:01:23.666Z,100311.09
2022-10-18T21:03:52.765Z,100314.63
2022-10-18T21:06:22.866Z,100324.38
2022-10-18T21:08:58.087Z,100321.53
2022-10-18T21:11:26.057Z,100288.59
2022-10-18T21:13:59.176Z,100314.94
2022-10-18T21:16:26.557Z,100332.09
2022-10-18T21:18:53.850Z,100327.22
2022-10-18T21:21:23.296Z,100307.97
2022-10-18T21:23:51.127Z,100324.06
2022-10-18T21:26:23.233Z,100317.59
2022-10-18T21:28:52.182Z,100315.06
2022-10-18T21:31:24.544Z,100331.44
2022-10-18T21:33:56.611Z,100325.28
2022-10-18T21:36:24.192Z,100312.50
2022-10-18T21:38:51.475Z,100280.31
2022-10-18T21:41:20.028Z,100284.09
2022-10-18T21:43:55.908Z,100292.59
2022-10-18T21:46:27.011Z,100311.94
2022-10-18T21:48:55.467Z,100316.34
2022-10-18T21:51:24.479Z,100283.00
2022-10-18T21:53:53.599Z,100283.13
2022-10-18T21:56:28.595Z,100297.00
2022-10-18T21:58:56.188Z,100296.03
2022-10-18T22:01:24.466Z,100275.66
2022-10-18T22:03:53.022Z,100287.75
2022-10-18T22:06:21.361Z,100277.38
2022-10-18T22:08:56.367Z,100265.66
2022-10-18T22:11:27.076Z,100285.53
2022-10-18T22:13:54.227Z,100274.22
2022-10-18T22:16:21.733Z,100267.47
2022-10-18T22:18:49.872Z,100273.06
2022-10-18T22:21:19.153Z,100263.38
2022-10-18T22:23:48.880Z,100260.66
2022-10-18T22:26:27.621Z,100256.53
2022-10-18T22:29:02.383Z,100253.59
2022-10-18T22:31:32.622Z,100257.38
2022-10-18T22:34:01.754Z,100252.28
2022-10-18T22:36:28.917Z,100204.78
2022-10-18T22:38:55.983Z,100224.41
2022-10-18T22:41:22.889Z,100214.25
2022-10-18T22:43:53.555Z,100218.41
2022-10-18T22:46:21.003Z,100225.50
2022-10-18T22:48:48.623Z,100226.78
2022-10-18T22:51:16.079Z,100213.69
2022-10-18T22:53:42.859Z,100200.59
2022-10-18T22:56:13.120Z,100216.28
2022-10-18T22:58:40.051Z,100199.97
2022-10-18T23:01:09.832Z,100200.34
2022-10-18T23:03:37.381Z,100189.00
2022-10-18T23:06:06.025Z,100199.03
2022-10-18T23:08:33.408Z,100182.50
2022-10-18T23:11:00.374Z,100186.63
2022-10-18T23:13:28.400Z,100174.00
2022-10-18T23:16:04.361Z,100153.22
2022-10-18T23:18:32.592Z,100143.16
2022-10-18T23:21:13.208Z,100134.03
2022-10-18T23:23:42.532Z,100146.19
2022-10-18T23:26:14.591Z,100160.16
2022-10-18T23:28:44.192Z,100140.66
2022-10-18T23:31:18.083Z,100138.66
2022-10-18T23:33:46.825Z,100139.03
2022-10-18T23:36:13.909Z,100119.63
2022-10-18T23:38:41.361Z,100099.19
2022-10-18T23:41:10.094Z,100119.03
2022-10-18T23:43:36.792Z,100137.00
2022-10-18T23:46:04.343Z,100123.75
2022-10-18T23:48:31.339Z,100113.25
2022-10-18T23:50:58.258Z,100121.84
2022-10-18T23:53:25.124Z,100088.19
2022-10-18T23:55:57.259Z,100079.91
2022-10-18T23:58:25.131Z,100077.75
